createdAt,value
2022-10-29T00:01:23.092Z,12.80
2022-10-29T00:03:50.976Z,12.70
2022-10-29T00:06:19.363Z,12.57
2022-10-29T00:09:05.876Z,12.18
2022-10-29T00:11:34.849Z,11.60
2022-10-29T00:14:03.156Z,11.57
2022-10-29T00:16:38.141Z,11.85
2022-10-29T00:19:06.690Z,11.63
2022-10-29T00:21:35.397Z,12.15
2022-10-29T00:24:21.593Z,12.05
2022-10-29T00:26:49.621Z,11.60
2022-10-29T00:29:35.963Z,12.25
2022-10-29T00:32:04.668Z,11.45
2022-10-29T00:34:50.776Z,11.63
2022-10-29T00:37:36.664Z,11.77
2022-10-29T00:40:05.469Z,12.20
2022-10-29T00:42:33.059Z,11.80
2022-10-29T00:45:20.653Z,11.85
2022-10-29T00:48:06.950Z,11.80
2022-10-29T00:50:54.300Z,12.13
2022-10-29T00:53:31.121Z,11.93
2022-10-29T00:55:59.611Z,11.90
2022-10-29T00:58:28.288Z,11.77
2022-10-29T01:01:14.645Z,11.75
2022-10-29T01:03:43.621Z,11.70
2022-10-29T01:06:31.940Z,10.73
2022-10-29T01:09:00.109Z,11.48
2022-10-29T01:11:54.062Z,10.75
2022-10-29T01:14:56.849Z,11.07
2022-10-29T01:17:27.978Z,11.63
2022-10-29T01:20:22.201Z,11.65
2022-10-29T01:23:22.365Z,10.90
2022-10-29T01:26:11.870Z,10.75
2022-10-29T01:29:04.211Z,10.88
2022-10-29T01:31:57.400Z,10.13
2022-10-29T01:34:50.075Z,10.55
2022-10-29T01:37:48.113Z,10.70
2022-10-29T01:40:18.113Z,10.88
2022-10-29T01:43:03.512Z,10.52
2022-10-29T01:45:44.020Z,11.10
2022-10-29T01:48:19.414Z,10.40
2022-10-29T01:50:49.490Z,12.15
2022-10-29T01:53:37.344Z,9.70
2022-10-29T01:56:05.745Z,10.05
2022-10-29T01:58:34.953Z,10.02
2022-10-29T02:01:15.678Z,11.05
2022-10-29T02:04:25.564Z,10.98
2022-10-29T02:07:11.433Z,10.35
2022-10-29T02:10:06.274Z,11.15
2022-10-29T02:12:40.960Z,10.70
2022-10-29T02:15:13.755Z,9.63
2022-10-29T02:17:42.331Z,11.25
2022-10-29T02:20:12.144Z,11.23
2022-10-29T02:22:58.256Z,10.95
2022-10-29T02:25:27.844Z,10.98
2022-10-29T02:27:59.815Z,10.30
2022-10-29T02:30:28.496Z,11.65
2022-10-29T02:32:56.675Z,10.40
2022-10-29T02:35:42.716Z,9.95
2022-10-29T02:38:10.492Z,10.68
2022-10-29T02:40:38.198Z,11.40
2022-10-29T02:43:05.998Z,11.45
2022-10-29T02:45:33.775Z,11.10
2022-10-29T02:48:01.532Z,10.95
2022-10-29T02:50:29.410Z,11.55
2022-10-29T02:52:57.357Z,10.75
2022-10-29T02:55:25.090Z,10.88
2022-10-29T02:57:53.031Z,10.95
2022-10-29T03:00:39.090Z,10.73
2022-10-29T03:03:07.095Z,10.93
2022-10-29T03:05:35.405Z,11.43
2022-10-29T03:08:02.654Z,11.02
2022-10-29T03:10:30.395Z,10.60
2022-10-29T03:13:02.067Z,10.23
2022-10-29T03:15:29.421Z,10.43
2022-10-29T03:18:15.460Z,10.70
2022-10-29T03:21:01.252Z,10.82
2022-10-29T03:23:29.126Z,10.77
2022-10-29T03:25:57.401Z,10.82
2022-10-29T03:28:28.076Z,10.07
2022-10-29T03:31:13.646Z,10.43
2022-10-29T03:33:41.611Z,10.13
2022-10-29T03:36:09.530Z,9.98
2022-10-29T03:38:37.111Z,10.15
2022-10-29T03:41:10.617Z,9.75
2022-10-29T03:43:57.252Z,11.05
2022-10-29T03:46:25.516Z,10.73
2022-10-29T03:48:53.279Z,10.07
2022-10-29T03:51:21.076Z,10.40
2022-10-29T03:53:49.509Z,10.32
2022-10-29T03:56:17.453Z,9.93
2022-10-29T03:58:45.447Z,9.93
2022-10-29T04:01:13.199Z,9.00
2022-10-29T04:03:42.675Z,10.27
2022-10-29T04:06:12.740Z,8.68
2022-10-29T04:08:41.228Z,8.65
2022-10-29T04:11:11.175Z,9.25
2022-10-29T04:13:39.903Z,9.13
2022-10-29T04:16:08.282Z,9.13
2022-10-29T04:18:35.941Z,9.15
2022-10-29T04:27:21.298Z,9.50
2022-10-29T04:29:31.295Z,8.65
2022-10-29T04:32:48.294Z,8.73
2022-10-29T04:35:20.859Z,8.02
2022-10-29T04:38:13.084Z,8.15
2022-10-29T04:41:03.444Z,9.32
2022-10-29T04:43:35.634Z,9.25
2022-10-29T04:46:24.634Z,9.38
2022-10-29T04:48:57.185Z,8.65
2022-10-29T04:51:29.510Z,9.05
2022-10-29T04:53:58.959Z,8.57
2022-10-29T04:56:26.656Z,8.93
2022-10-29T04:58:54.443Z,8.77
2022-10-29T05:01:22.374Z,9.02
2022-10-29T05:04:08.512Z,8.32
2022-10-29T05:06:36.659Z,7.68
2022-10-29T05:09:04.995Z,9.15
2022-10-29T05:11:51.104Z,7.90
2022-10-29T05:14:36.790Z,9.27
2022-10-29T05:17:04.974Z,9.55
2022-10-29T05:19:32.924Z,8.32
2022-10-29T05:22:00.850Z,8.20
2022-10-29T05:24:46.597Z,9.35
2022-10-29T05:27:32.652Z,9.23
2022-10-29T05:30:00.734Z,8.55
2022-10-29T05:32:46.901Z,8.38
2022-10-29T05:35:14.971Z,9.07
2022-10-29T05:37:42.746Z,8.90
2022-10-29T05:40:29.189Z,8.43
2022-10-29T05:42:57.733Z,8.63
2022-10-29T05:45:25.554Z,8.65
2022-10-29T05:48:02.031Z,9.60
2022-10-29T05:50:30.575Z,8.68
2022-10-29T05:53:16.944Z,8.43
2022-10-29T05:56:03.381Z,7.90
2022-10-29T05:58:50.878Z,8.55
2022-10-29T06:01:22.055Z,8.60
2022-10-29T06:04:08.476Z,8.95
2022-10-29T06:06:54.769Z,9.00
2022-10-29T06:09:23.020Z,8.75
2022-10-29T06:11:50.465Z,8.50
2022-10-29T06:14:18.311Z,8.48
2022-10-29T06:16:45.945Z,8.73
2022-10-29T06:19:14.282Z,8.60
2022-10-29T06:21:42.132Z,8.13
2022-10-29T06:24:28.349Z,8.48
2022-10-29T06:26:56.380Z,8.52
2022-10-29T06:29:42.065Z,8.65
2022-10-29T06:32:10.595Z,8.93
2022-10-29T06:34:38.237Z,9.77
2022-10-29T06:37:06.864Z,9.10
2022-10-29T06:39:34.723Z,8.00
2022-10-29T06:42:20.985Z,9.75
2022-10-29T06:44:48.935Z,8.55
2022-10-29T06:47:16.577Z,9.23
2022-10-29T06:50:02.872Z,8.40
2022-10-29T06:52:31.596Z,8.20
2022-10-29T06:55:18.030Z,8.98
2022-10-29T06:57:45.877Z,8.07
2022-10-29T07:00:13.795Z,8.52
2022-10-29T07:02:41.974Z,7.20
2022-10-29T07:05:09.757Z,8.48
2022-10-29T07:07:37.607Z,7.60
2022-10-29T07:10:05.655Z,8.07
2022-10-29T07:12:48.124Z,7.07
2022-10-29T07:15:34.500Z,8.05
2022-10-29T07:18:07.103Z,8.27
2022-10-29T07:20:40.019Z,8.32
2022-10-29T07:23:08.785Z,8.32
2022-10-29T07:25:38.186Z,8.75
2022-10-29T07:28:23.619Z,7.20
2022-10-29T07:30:52.589Z,7.35
2022-10-29T07:33:20.506Z,8.45
2022-10-29T07:35:48.326Z,8.20
2022-10-29T07:38:16.593Z,8.30
2022-10-29T07:40:49.593Z,8.15
2022-10-29T07:43:18.709Z,7.65
2022-10-29T07:45:49.944Z,8.80
2022-10-29T07:48:19.328Z,7.15
2022-10-29T07:50:47.995Z,6.75
2022-10-29T07:53:16.509Z,7.80
2022-10-29T07:55:44.292Z,8.20
2022-10-29T07:58:13.055Z,7.95
2022-10-29T08:00:43.771Z,8.20
2022-10-29T08:03:13.003Z,7.75
2022-10-29T08:05:42.863Z,8.23
2022-10-29T08:08:11.076Z,8.23
2022-10-29T08:10:39.120Z,7.53
2022-10-29T08:13:07.421Z,7.72
2022-10-29T08:15:35.315Z,6.45
2022-10-29T08:18:05.084Z,7.97
2022-10-29T08:20:33.639Z,8.13
2022-10-29T08:23:01.974Z,8.35
2022-10-29T08:25:30.312Z,8.18
2022-10-29T08:28:03.031Z,7.75
2022-10-29T08:30:32.537Z,8.05
2022-10-29T08:33:20.161Z,7.90
2022-10-29T08:35:49.311Z,8.88
2022-10-29T08:38:17.240Z,7.82
2022-10-29T08:41:03.942Z,7.88
2022-10-29T08:43:49.816Z,8.63
2022-10-29T08:46:46.860Z,8.35
2022-10-29T08:49:38.546Z,8.43
2022-10-29T08:52:11.796Z,8.55
2022-10-29T08:55:18.043Z,8.27
2022-10-29T08:58:31.413Z,8.52
2022-10-29T09:01:02.219Z,8.52
2022-10-29T09:03:30.482Z,9.30
2022-10-29T09:06:09.045Z,9.18
2022-10-29T09:08:47.782Z,8.60
2022-10-29T09:11:36.185Z,9.48
2022-10-29T09:14:21.791Z,9.52
2022-10-29T09:16:54.463Z,10.25
2022-10-29T09:20:01.511Z,8.85
2022-10-29T09:22:46.120Z,10.20
2022-10-29T09:25:26.418Z,9.73
2022-10-29T09:28:07.685Z,8.27
2022-10-29T09:31:07.051Z,10.35
2022-10-29T09:33:35.530Z,10.15
2022-10-29T09:36:12.366Z,8.45
2022-10-29T09:39:04.789Z,11.10
2022-10-29T09:41:34.630Z,9.57
2022-10-29T09:44:23.946Z,10.50
2022-10-29T09:47:22.115Z,10.10
2022-10-29T09:50:15.664Z,12.35
2022-10-29T09:53:02.018Z,11.07
2022-10-29T09:55:44.793Z,10.93
2022-10-29T09:58:21.060Z,12.80
2022-10-29T10:00:50.451Z,12.45
2022-10-29T10:03:37.600Z,12.63
2022-10-29T10:06:10.265Z,12.82
2022-10-29T10:09:03.425Z,14.32
2022-10-29T10:11:51.051Z,15.85
2022-10-29T10:14:37.876Z,16.52
2022-10-29T10:17:24.445Z,16.48
2022-10-29T10:19:52.694Z,17.10
2022-10-29T10:22:47.539Z,17.67
2022-10-29T10:25:39.306Z,17.20
2022-10-29T10:28:34.869Z,18.42
2022-10-29T10:31:12.950Z,18.55
2022-10-29T10:33:55.561Z,19.08
2022-10-29T10:36:27.725Z,20.25
2022-10-29T10:39:00.821Z,19.95
2022-10-29T10:41:47.327Z,19.10
2022-10-29T10:44:15.370Z,24.33
2022-10-29T10:47:07.059Z,18.33
2022-10-29T10:52:41.492Z,18.20
2022-10-29T10:55:22.958Z,17.27
2022-10-29T10:58:10.804Z,16.90
2022-10-29T11:00:51.112Z,15.45
2022-10-29T11:06:24.080Z,13.93
2022-10-29T11:09:11.816Z,14.43
2022-10-29T11:11:44.688Z,13.13
2022-10-29T11:14:43.634Z,14.68
2022-10-29T11:17:42.355Z,13.88
2022-10-29T11:20:20.133Z,13.55
2022-10-29T11:23:48.626Z,12.88
2022-10-29T11:26:29.391Z,13.25
2022-10-29T11:29:14.566Z,13.73
2022-10-29T11:31:59.550Z,13.80
2022-10-29T11:35:05.303Z,13.27
2022-10-29T11:37:59.841Z,13.48
2022-10-29T11:41:24.881Z,11.95
2022-10-29T11:43:53.278Z,12.80
2022-10-29T11:47:10.361Z,11.32
2022-10-29T11:50:17.566Z,11.77
2022-10-29T11:53:10.203Z,11.75
2022-10-29T11:55:41.662Z,11.57
2022-10-29T11:58:49.175Z,13.18
2022-10-29T12:01:54.470Z,12.27
2022-10-29T12:04:33.893Z,11.70
2022-10-29T12:07:29.823Z,11.10
2022-10-29T12:10:35.824Z,11.73
2022-10-29T12:13:50.112Z,11.27
2022-10-29T12:16:30.222Z,10.90
2022-10-29T12:19:23.156Z,11.90
2022-10-29T12:22:09.996Z,11.57
2022-10-29T12:25:03.034Z,10.82
2022-10-29T12:28:08.265Z,12.13
2022-10-29T12:30:58.757Z,12.07
2022-10-29T12:33:45.889Z,12.13
2022-10-29T12:36:25.671Z,14.27
2022-10-29T12:39:31.262Z,12.43
2022-10-29T12:42:22.483Z,12.20
2022-10-29T12:45:32.464Z,13.85
2022-10-29T12:48:32.131Z,11.38
2022-10-29T12:51:29.521Z,12.10
2022-10-29T12:54:23.725Z,12.57
2022-10-29T12:56:52.398Z,12.27
2022-10-29T12:59:24.466Z,12.77
2022-10-29T13:02:39.085Z,12.32
2022-10-29T13:05:44.371Z,11.32
2022-10-29T13:08:23.549Z,11.32
2022-10-29T13:10:53.281Z,11.82
2022-10-29T13:13:26.269Z,10.45
2022-10-29T13:16:25.582Z,9.88
2022-10-29T13:19:15.137Z,10.23
2022-10-29T13:22:04.331Z,10.40
2022-10-29T13:25:28.311Z,10.32
2022-10-29T13:28:14.653Z,10.23
2022-10-29T13:30:45.179Z,10.50
2022-10-29T13:33:31.804Z,10.30
2022-10-29T13:36:02.779Z,10.25
2022-10-29T13:39:04.312Z,10.40
2022-10-29T13:41:49.320Z,11.35
2022-10-29T13:44:21.810Z,11.18
2022-10-29T13:47:04.655Z,10.38
2022-10-29T13:49:41.314Z,10.30
2022-10-29T13:52:09.800Z,9.80
2022-10-29T13:55:02.245Z,9.07
2022-10-29T13:57:54.729Z,10.10
2022-10-29T14:00:42.944Z,10.10
2022-10-29T14:03:35.912Z,10.27
2022-10-29T14:06:41.176Z,9.23
2022-10-29T14:09:14.089Z,9.32
2022-10-29T14:11:53.765Z,9.23
2022-10-29T14:14:48.394Z,9.45
2022-10-29T14:17:18.009Z,9.07
2022-10-29T14:19:51.095Z,8.90
2022-10-29T14:22:38.610Z,9.13
2022-10-29T14:25:24.888Z,10.63
2022-10-29T14:28:16.300Z,9.95
2022-10-29T14:30:48.554Z,8.80
2022-10-29T14:33:30.723Z,8.80
2022-10-29T14:36:21.048Z,10.57
2022-10-29T14:38:54.372Z,8.95
2022-10-29T14:41:23.090Z,10.52
2022-10-29T14:43:56.641Z,14.27
2022-10-29T14:46:27.088Z,10.77
2022-10-29T14:49:00.707Z,9.93
2022-10-29T14:51:32.211Z,9.40
2022-10-29T14:54:22.263Z,10.07
2022-10-29T14:56:54.502Z,10.43
2022-10-29T14:59:26.436Z,10.68
2022-10-29T15:02:05.472Z,10.77
2022-10-29T15:04:50.311Z,10.57
2022-10-29T15:07:37.958Z,11.05
2022-10-29T15:10:24.216Z,10.35
2022-10-29T15:12:52.521Z,10.07
2022-10-29T15:15:27.961Z,10.20
2022-10-29T15:18:01.554Z,9.73
2022-10-29T15:20:46.246Z,10.48
2022-10-29T15:23:38.313Z,9.65
2022-10-29T15:26:08.751Z,10.00
2022-10-29T15:28:44.650Z,10.18
2022-10-29T15:31:18.638Z,10.05
2022-10-29T15:34:19.169Z,10.07
2022-10-29T15:36:50.774Z,9.73
2022-10-29T15:39:27.104Z,10.32
2022-10-29T15:41:57.256Z,9.77
2022-10-29T15:44:42.781Z,9.30
2022-10-29T15:47:28.888Z,10.90
2022-10-29T15:49:57.196Z,10.13
2022-10-29T15:52:45.043Z,9.23
2022-10-29T15:55:27.395Z,9.77
2022-10-29T15:58:16.322Z,16.77
2022-10-29T16:00:44.247Z,11.50
2022-10-29T16:03:14.173Z,13.07
2022-10-29T16:05:42.634Z,12.80
2022-10-29T16:08:19.118Z,11.35
2022-10-29T16:10:46.332Z,9.73
2022-10-29T16:13:13.856Z,10.88
2022-10-29T16:15:59.513Z,10.40
2022-10-29T16:18:46.377Z,10.18
2022-10-29T16:21:17.569Z,11.45
2022-10-29T16:23:45.581Z,11.82
2022-10-29T16:26:18.213Z,10.15
2022-10-29T16:28:45.555Z,11.18
2022-10-29T16:31:20.626Z,10.77
2022-10-29T16:33:48.923Z,12.65
2022-10-29T16:36:16.726Z,12.38
2022-10-29T16:39:02.614Z,15.75
2022-10-29T16:41:30.997Z,14.82
2022-10-29T16:43:58.282Z,15.07
2022-10-29T16:46:25.998Z,13.52
2022-10-29T16:48:53.390Z,12.45
2022-10-29T16:51:20.750Z,12.40
2022-10-29T16:53:48.565Z,11.73
2022-10-29T16:56:15.934Z,11.23
2022-10-29T16:58:43.331Z,12.20
2022-10-29T17:01:11.008Z,11.65
2022-10-29T17:03:41.530Z,11.00
2022-10-29T17:06:27.127Z,10.18
2022-10-29T17:08:54.666Z,11.25
2022-10-29T17:11:21.853Z,11.23
2022-10-29T17:13:49.293Z,11.88
2022-10-29T17:16:19.041Z,11.63
2022-10-29T17:19:05.151Z,11.65
2022-10-29T17:21:36.276Z,13.65
2022-10-29T17:24:21.866Z,16.13
2022-10-29T17:26:49.284Z,12.10
2022-10-29T17:29:36.396Z,12.05
2022-10-29T17:32:05.594Z,11.38
2022-10-29T17:34:51.190Z,13.38
2022-10-29T17:37:18.804Z,14.07
2022-10-29T17:39:46.176Z,13.95
2022-10-29T17:42:13.739Z,15.10
2022-10-29T17:44:40.832Z,14.15
2022-10-29T17:47:08.167Z,14.23
2022-10-29T17:49:35.683Z,14.13
2022-10-29T17:52:03.255Z,19.52
2022-10-29T17:54:30.419Z,15.57
2022-10-29T17:57:15.792Z,23.48
2022-10-29T17:59:43.174Z,19.05
2022-10-29T18:02:11.569Z,17.30
2022-10-29T18:04:39.491Z,56.13
2022-10-29T18:07:06.598Z,22.90
2022-10-29T18:09:34.142Z,18.42
2022-10-29T18:12:01.339Z,16.65
2022-10-29T18:14:28.903Z,18.50
2022-10-29T18:16:56.558Z,17.23
2022-10-29T18:19:42.274Z,15.57
2022-10-29T18:22:27.969Z,16.17
2022-10-29T18:24:55.482Z,16.05
2022-10-29T18:27:22.770Z,17.75
2022-10-29T18:30:09.364Z,17.77
2022-10-29T18:32:37.022Z,17.08
2022-10-29T18:35:04.916Z,18.50
2022-10-29T18:37:32.164Z,16.88
2022-10-29T18:40:17.925Z,18.05
2022-10-29T18:42:45.469Z,19.70
2022-10-29T18:45:13.376Z,33.70
2022-10-29T18:47:40.623Z,56.58
2022-10-29T18:50:26.416Z,67.65
2022-10-29T18:53:12.038Z,34.50
2022-10-29T18:55:39.758Z,36.72
2022-10-29T18:58:06.988Z,31.27
2022-10-29T19:00:34.555Z,28.70
2022-10-29T19:03:01.864Z,33.65
2022-10-29T19:05:29.405Z,24.48
2022-10-29T19:07:57.059Z,38.20
2022-10-29T19:10:24.796Z,28.58
2022-10-29T19:12:51.993Z,33.05
2022-10-29T19:15:39.172Z,23.77
2022-10-29T19:18:06.829Z,24.52
2022-10-29T19:20:36.876Z,23.63
2022-10-29T19:23:22.783Z,28.08
2022-10-29T19:26:13.748Z,40.42
2022-10-29T19:28:41.829Z,61.65
2022-10-29T19:31:28.942Z,33.22
2022-10-29T19:34:14.704Z,41.28
2022-10-29T19:36:42.288Z,43.35
2022-10-29T19:39:09.585Z,37.05
2022-10-29T19:41:54.965Z,25.73
2022-10-29T19:44:40.717Z,24.45
2022-10-29T19:47:08.326Z,25.02
2022-10-29T19:49:35.523Z,28.58
2022-10-29T19:52:03.013Z,25.30
2022-10-29T19:54:30.298Z,27.63
2022-10-29T19:56:58.396Z,27.02
2022-10-29T19:59:25.641Z,22.27
2022-10-29T20:01:53.320Z,22.73
2022-10-29T20:04:20.699Z,22.73
2022-10-29T20:07:06.306Z,25.38
2022-10-29T20:09:33.861Z,23.45
2022-10-29T20:12:01.206Z,23.05
2022-10-29T20:14:29.365Z,23.13
2022-10-29T20:17:15.002Z,21.92
2022-10-29T20:19:43.228Z,22.45
2022-10-29T20:22:10.823Z,24.45
2022-10-29T20:24:38.345Z,23.42
2022-10-29T20:27:05.953Z,21.42
2022-10-29T20:29:33.349Z,20.90
2022-10-29T20:32:00.906Z,20.75
2022-10-29T20:34:28.627Z,29.42
2022-10-29T20:36:56.301Z,23.95
2022-10-29T20:39:24.465Z,27.33
2022-10-29T20:41:52.437Z,24.63
2022-10-29T20:44:19.810Z,22.75
2022-10-29T20:46:47.079Z,23.10
2022-10-29T20:49:14.625Z,25.83
2022-10-29T20:51:41.949Z,25.25
2022-10-29T20:54:09.219Z,24.20
2022-10-29T20:56:36.722Z,22.77
2022-10-29T20:59:22.572Z,23.23
2022-10-29T21:02:10.708Z,21.55
2022-10-29T21:04:39.338Z,21.75
2022-10-29T21:07:25.466Z,26.20
2022-10-29T21:09:52.925Z,24.42
2022-10-29T21:12:20.198Z,23.27
2022-10-29T21:14:47.642Z,21.63
2022-10-29T21:17:15.148Z,22.45
2022-10-29T21:20:00.872Z,27.67
2022-10-29T21:22:28.542Z,26.50
2022-10-29T21:24:55.727Z,22.88
2022-10-29T21:27:22.997Z,22.13
2022-10-29T21:29:50.999Z,21.35
2022-10-29T21:32:18.533Z,22.38
2022-10-29T21:34:45.927Z,22.52
2022-10-29T21:37:31.709Z,22.55
2022-10-29T21:40:01.758Z,22.83
2022-10-29T21:42:33.074Z,26.60
2022-10-29T21:45:18.660Z,24.00
2022-10-29T21:47:46.285Z,25.60
2022-10-29T21:50:13.522Z,20.45
2022-10-29T21:52:41.330Z,22.90
2022-10-29T21:55:09.152Z,20.65
2022-10-29T21:57:36.357Z,19.80
2022-10-29T22:00:06.289Z,20.98
2022-10-29T22:02:33.805Z,19.75
2022-10-29T22:05:01.311Z,20.42
2022-10-29T22:07:28.778Z,22.17
2022-10-29T22:09:56.295Z,22.08
2022-10-29T22:12:23.509Z,22.30
2022-10-29T22:14:50.858Z,22.52
2022-10-29T22:17:36.495Z,23.13
2022-10-29T22:20:05.101Z,22.88
2022-10-29T22:22:32.306Z,22.75
2022-10-29T22:25:17.890Z,22.67
2022-10-29T22:28:03.530Z,23.50
2022-10-29T22:30:48.954Z,23.42
2022-10-29T22:33:16.490Z,24.13
2022-10-29T22:35:43.634Z,24.13
2022-10-29T22:38:29.121Z,25.90
2022-10-29T22:40:56.556Z,39.75
2022-10-29T22:43:23.825Z,38.97
2022-10-29T22:45:51.094Z,28.50
2022-10-29T22:48:36.970Z,29.13
2022-10-29T22:51:07.032Z,24.98
2022-10-29T22:53:34.553Z,23.95
2022-10-29T22:56:02.171Z,24.88
2022-10-29T22:58:47.921Z,23.52
2022-10-29T23:01:17.839Z,25.60
2022-10-29T23:03:45.480Z,25.05
2022-10-29T23:06:19.167Z,24.92
2022-10-29T23:08:47.416Z,25.27
2022-10-29T23:11:20.461Z,24.02
2022-10-29T23:13:49.572Z,24.52
2022-10-29T23:16:16.777Z,24.17
2022-10-29T23:18:44.359Z,26.40
2022-10-29T23:21:11.839Z,24.65
2022-10-29T23:23:39.387Z,27.50
2022-10-29T23:26:06.740Z,28.77
2022-10-29T23:28:37.890Z,26.35
2022-10-29T23:31:11.980Z,24.67
2022-10-29T23:33:44.111Z,24.42
2022-10-29T23:36:11.821Z,26.10
2022-10-29T23:38:39.238Z,25.23
2022-10-29T23:41:06.957Z,24.02
2022-10-29T23:43:52.449Z,23.52
2022-10-29T23:46:38.166Z,24.65
2022-10-29T23:49:05.623Z,25.33
2022-10-29T23:54:00.140Z,56.55
2022-10-29T23:56:27.706Z,61.78
2022-10-29T23:58:55.101Z,43.05
